Time;durP1;ratioP1;P1;durP2;ratioP2;P2;SDS_P1;SDS_P2;PMS_P1;PMS_P2;Temp;Humidity;BMP_temperature;BMP_pressure;BME280_temperature;BME280_humidity;BME280_pressure;Samples;Min_cycle;Max_cycle;Signal;HPM_P1;HPM_P2
2023/08/27 00:00:38;;;;;;;0.68;0.68;;;;;;;23.57;100.00;100287.78;4986686;28;20044;-74
2023/08/27 00:03:03;;;;;;;1.65;1.30;;;;;;;23.34;100.00;100271.19;4987317;28;20358;-74
2023/08/27 00:05:29;;;;;;;1.75;0.85;;;;;;;23.22;100.00;100257.59;4986530;28;20046;-73
2023/08/27 00:07:54;;;;;;;1.27;1.17;;;;;;;23.05;100.00;100239.78;4982161;28;20039;-74
2023/08/27 00:10:20;;;;;;;2.50;2.30;;;;;;;23.27;100.00;100272.50;4986620;28;20305;-73
2023/08/27 00:12:45;;;;;;;1.27;1.05;;;;;;;23.33;100.00;100273.94;4986913;28;20042;-74
2023/08/27 00:15:11;;;;;;;0.88;0.73;;;;;;;23.23;100.00;100268.25;4986524;28;20434;-74
2023/08/27 00:17:37;;;;;;;1.45;1.35;;;;;;;22.56;100.00;100165.69;4985454;28;20046;-74
2023/08/27 00:20:09;;;;;;;1.25;0.80;;;;;;;22.57;100.00;100155.84;4985922;28;20066;-74
2023/08/27 00:22:34;;;;;;;1.23;1.03;;;;;;;22.06;100.00;100081.88;4987070;28;20051;-74
2023/08/27 00:25:00;;;;;;;1.13;1.02;;;;;;;22.72;100.00;100174.63;4984794;28;20125;-73
2023/08/27 00:27:25;;;;;;;0.93;0.85;;;;;;;22.43;100.00;100162.81;4985957;28;20054;-72
2023/08/27 00:29:51;;;;;;;4.07;1.10;;;;;;;22.51;100.00;100160.59;4986598;28;20490;-73
2023/08/27 00:32:17;;;;;;;2.65;2.45;;;;;;;22.40;100.00;100154.94;4984685;28;20069;-73
2023/08/27 00:34:42;;;;;;;0.70;0.63;;;;;;;23.04;100.00;100251.44;4980355;28;20485;-73
2023/08/27 00:37:07;;;;;;;0.52;0.52;;;;;;;22.97;100.00;100254.44;4986542;28;20038;-73
2023/08/27 00:39:33;;;;;;;0.73;0.65;;;;;;;22.98;100.00;100255.28;4986325;28;20042;-73
2023/08/27 00:41:58;;;;;;;2.22;1.70;;;;;;;22.92;100.00;100250.25;4986522;28;20479;-75
2023/08/27 00:44:24;;;;;;;0.82;0.60;;;;;;;22.32;100.00;100146.47;4978684;28;20062;-75
2023/08/27 00:46:50;;;;;;;1.25;1.08;;;;;;;22.79;100.00;100222.44;4986880;28;20026;-73
2023/08/27 00:49:16;;;;;;;0.73;0.65;;;;;;;22.64;100.00;100206.28;4985419;28;20057;-74
2023/08/27 00:51:44;;;;;;;3.40;1.52;;;;;;;22.21;100.00;100151.53;4986667;28;20046;-72
2023/08/27 00:54:11;;;;;;;0.95;0.80;;;;;;;22.85;100.00;100244.41;4977259;28;20042;-73
2023/08/27 00:56:37;;;;;;;1.30;1.20;;;;;;;22.94;100.00;100262.63;4985188;28;20059;-73
2023/08/27 00:59:04;;;;;;;2.47;1.25;;;;;;;23.03;100.00;100260.44;4986283;28;20113;-72
2023/08/27 01:01:30;;;;;;;0.40;0.40;;;;;;;22.45;100.00;100154.69;4982739;28;20043;-73
2023/08/27 01:03:56;;;;;;;1.13;1.00;;;;;;;22.68;100.00;100170.38;4986368;28;20129;-73
2023/08/27 01:06:21;;;;;;;1.55;1.45;;;;;;;22.73;100.00;100164.78;5017268;28;20548;-73
2023/08/27 01:08:58;;;;;;;0.30;0.30;;;;;;;22.80;100.00;100170.66;4989033;28;20100;-73
2023/08/27 01:11:26;;;;;;;1.45;1.35;;;;;;;23.41;100.00;100269.00;4977579;28;20042;-73
2023/08/27 01:13:57;;;;;;;0.90;0.85;;;;;;;23.50;100.00;100260.47;4990192;28;20145;-74
2023/08/27 01:16:25;;;;;;;4.15;2.17;;;;;;;23.10;100.00;100182.38;4985733;28;20053;-72
2023/08/27 01:18:52;;;;;;;1.73;1.20;;;;;;;22.95;100.00;100157.31;4989469;28;20049;-73
2023/08/27 01:21:25;;;;;;;0.63;0.50;;;;;;;22.98;100.00;100156.25;4986686;28;20542;-72
2023/08/27 01:23:51;;;;;;;1.85;1.67;;;;;;;23.57;100.00;100263.66;4987847;28;20062;-73
2023/08/27 01:26:39;;;;;;;0.65;0.43;;;;;;;23.14;100.00;100175.91;4987902;28;20035;-73
2023/08/27 01:29:27;;;;;;;1.27;1.02;;;;;;;23.55;100.00;100258.41;4978160;28;20034;-73
2023/08/27 01:32:32;;;;;;;0.75;0.70;;;;;;;23.64;100.00;100256.16;4985159;28;20056;-73
2023/08/27 01:35:01;;;;;;;0.60;0.38;;;;;;;23.60;100.00;100240.25;4986003;28;20065;-75
2023/08/27 01:37:26;;;;;;;2.22;0.65;;;;;;;23.38;100.00;100226.34;4985926;28;20050;-74
2023/08/27 01:40:00;;;;;;;0.50;0.43;;;;;;;23.01;100.00;100150.75;4986417;28;20034;-73
2023/08/27 01:42:26;;;;;;;0.60;0.60;;;;;;;22.99;100.00;100152.66;4988704;28;20418;-73
2023/08/27 01:44:52;;;;;;;0.75;0.75;;;;;;;23.53;100.00;100251.38;4983689;28;20066;-74
2023/08/27 01:47:18;;;;;;;2.70;2.00;;;;;;;23.30;100.00;100205.38;4988186;28;20038;-74
2023/08/27 01:49:44;;;;;;;0.50;0.40;;;;;;;22.90;100.00;100150.50;4989613;28;20030;-74
2023/08/27 01:52:09;;;;;;;0.40;0.30;;;;;;;22.81;100.00;100148.31;4988952;28;20050;-73
2023/08/27 01:54:35;;;;;;;1.73;0.98;;;;;;;22.88;100.00;100155.91;4988522;28;20055;-75
2023/08/27 01:57:00;;;;;;;2.05;1.52;;;;;;;23.43;100.00;100239.47;4986760;28;20042;-73
2023/08/27 01:59:25;;;;;;;0.70;0.60;;;;;;;22.92;100.00;100245.78;4988280;28;20054;-72
2023/08/27 02:01:51;;;;;;;1.58;1.48;;;;;;;23.22;100.00;100255.78;4989197;28;20471;-73
2023/08/27 02:04:16;;;;;;;0.70;0.70;;;;;;;23.25;100.00;100255.63;4986801;28;20086;-73
2023/08/27 02:06:42;;;;;;;2.17;1.45;;;;;;;22.89;100.00;100168.34;4983970;28;20042;-73
2023/08/27 02:09:07;;;;;;;0.80;0.80;;;;;;;22.63;100.00;100140.34;4988291;28;20110;-73
2023/08/27 02:11:34;;;;;;;2.50;1.95;;;;;;;23.26;100.00;100253.81;4988328;28;20122;-73
2023/08/27 02:13:59;;;;;;;2.65;0.98;;;;;;;23.25;100.00;100246.72;4977463;28;20066;-74
2023/08/27 02:16:24;;;;;;;1.35;1.17;;;;;;;22.84;100.00;100231.09;4986911;28;20062;-73
2023/08/27 02:18:50;;;;;;;1.27;1.25;;;;;;;22.40;100.00;100159.44;4987801;28;20058;-71
2023/08/27 02:21:15;;;;;;;0.70;0.65;;;;;;;23.01;100.00;100228.38;4988029;28;20108;-74
2023/08/27 02:23:42;;;;;;;1.83;1.67;;;;;;;23.13;100.00;100242.91;4983842;28;20121;-73
2023/08/27 02:26:08;;;;;;;0.68;0.68;;;;;;;22.85;100.00;100190.88;4983096;28;20034;-73
2023/08/27 02:28:33;;;;;;;2.33;0.60;;;;;;;23.00;100.00;100209.75;4988061;28;20497;-73
2023/08/27 02:30:59;;;;;;;1.35;1.25;;;;;;;22.59;100.00;100159.31;4987870;28;20042;-74
2023/08/27 02:33:25;;;;;;;0.88;0.82;;;;;;;22.44;100.00;100120.91;4987046;28;20052;-73
2023/08/27 02:35:51;;;;;;;1.98;1.48;;;;;;;22.52;100.00;100138.28;4984231;28;20058;-73
2023/08/27 02:38:18;;;;;;;1.25;1.15;;;;;;;23.10;100.00;100243.09;4986303;28;20030;-74
2023/08/27 02:40:43;;;;;;;0.77;0.50;;;;;;;22.13;100.00;100066.38;4985788;28;20053;-73
2023/08/27 02:43:09;;;;;;;0.70;0.50;;;;;;;23.08;100.00;100243.16;4986905;28;20042;-73
2023/08/27 02:45:34;;;;;;;1.65;1.27;;;;;;;23.02;100.00;100223.91;4987126;28;20108;-73
2023/08/27 02:47:59;;;;;;;2.55;1.95;;;;;;;22.16;100.00;100078.72;4987643;28;20112;-73
2023/08/27 02:50:25;;;;;;;0.77;0.70;;;;;;;23.06;100.00;100249.53;4978691;28;20047;-74
2023/08/27 02:52:50;;;;;;;1.63;1.52;;;;;;;22.45;100.00;100144.91;4987858;28;20037;-73
2023/08/27 02:55:16;;;;;;;1.55;1.45;;;;;;;22.59;100.00;100176.22;4984601;28;20624;-74
2023/08/27 02:57:41;;;;;;;0.90;0.90;;;;;;;22.41;100.00;100135.31;4986311;28;20050;-73
2023/08/27 03:00:07;;;;;;;1.38;1.27;;;;;;;22.70;100.00;100194.38;4981784;28;20081;-74
2023/08/27 03:02:33;;;;;;;0.35;0.30;;;;;;;22.48;100.00;100143.88;4987587;28;20049;-73
2023/08/27 03:05:06;;;;;;;1.10;1.00;;;;;;;22.06;100.00;100146.00;4988055;28;20390;-73
2023/08/27 03:07:32;;;;;;;0.57;0.57;;;;;;;22.82;100.00;100257.91;4975744;28;20055;-73
2023/08/27 03:09:57;;;;;;;1.73;1.48;;;;;;;22.78;100.00;100226.94;4982642;28;20406;-73
2023/08/27 03:12:23;;;;;;;1.50;1.38;;;;;;;22.48;100.00;100235.63;4987031;28;20089;-73
2023/08/27 03:14:48;;;;;;;0.45;0.45;;;;;;;21.55;100.00;100170.88;4987368;28;20054;-73
2023/08/27 03:17:14;;;;;;;2.33;1.35;;;;;;;22.37;100.00;100256.72;4986334;28;20097;-73
2023/08/27 03:19:39;;;;;;;0.80;0.55;;;;;;;22.53;100.00;100264.81;4988197;28;20505;-73
2023/08/27 03:22:05;;;;;;;1.00;0.75;;;;;;;21.87;100.00;100161.25;4987454;28;20074;-75
2023/08/27 03:24:30;;;;;;;1.80;1.63;;;;;;;22.68;100.00;100264.00;4985723;28;20055;-74
2023/08/27 03:26:56;;;;;;;3.72;3.42;;;;;;;21.98;100.00;100158.88;4978305;28;20482;-74
2023/08/27 03:29:21;;;;;;;1.65;1.55;;;;;;;21.82;100.00;100156.16;4985230;28;20065;-75
2023/08/27 03:31:47;;;;;;;0.75;0.75;;;;;;;21.63;100.00;100161.56;4986964;28;20065;-74
2023/08/27 03:34:13;;;;;;;0.65;0.63;;;;;;;21.67;100.00;100124.88;4985531;28;20042;-73
2023/08/27 03:36:38;;;;;;;0.57;0.52;;;;;;;21.89;100.00;100267.09;4983240;28;20402;-73
2023/08/27 03:39:04;;;;;;;1.17;0.60;;;;;;;21.47;100.00;100206.84;4987080;28;20121;-73
2023/08/27 03:41:30;;;;;;;0.82;0.82;;;;;;;21.17;100.00;100169.09;4986499;28;20205;-74
2023/08/27 03:43:55;;;;;;;1.00;0.75;;;;;;;21.27;100.00;100174.84;4980259;28;20105;-73
2023/08/27 03:46:21;;;;;;;0.40;0.40;;;;;;;21.65;100.00;100253.13;4985000;28;20093;-73
2023/08/27 03:48:47;;;;;;;1.00;0.98;;;;;;;21.38;100.00;100209.91;4986533;28;20050;-72
2023/08/27 03:51:12;;;;;;;1.85;1.75;;;;;;;21.13;100.00;100159.50;4986001;28;20039;-74
2023/08/27 03:53:38;;;;;;;1.25;1.10;;;;;;;21.98;100.00;100265.75;4985789;28;20062;-73
2023/08/27 03:56:04;;;;;;;0.30;0.30;;;;;;;21.89;100.00;100208.31;4985961;28;20054;-75
2023/08/27 03:58:29;;;;;;;1.38;1.27;;;;;;;22.41;100.00;100270.81;4986742;28;20213;-73
2023/08/27 04:00:55;;;;;;;0.38;0.38;;;;;;;21.69;100.00;100169.25;4986354;28;20045;-73
2023/08/27 04:03:20;;;;;;;0.60;0.55;;;;;;;21.85;100.00;100180.03;4981088;28;20042;-73
2023/08/27 04:05:49;;;;;;;1.10;1.05;;;;;;;21.76;100.00;100174.28;4984676;28;20046;-73
2023/08/27 04:08:15;;;;;;;0.63;0.52;;;;;;;22.28;100.00;100268.72;4986215;28;20062;-74
2023/08/27 04:10:48;;;;;;;1.65;1.48;;;;;;;22.41;100.00;100269.00;4981698;28;20027;-74
2023/08/27 04:13:13;;;;;;;;;;;;;;;22.57;100.00;100281.56;4984058;28;20457;-74
2023/08/27 04:15:39;;;;;;;0.98;0.90;;;;;;;22.35;100.00;100263.94;4986559;28;19957;-74
2023/08/27 04:18:04;;;;;;;1.80;0.90;;;;;;;22.01;100.00;100193.47;4986418;28;20080;-74
2023/08/27 04:20:30;;;;;;;4.22;2.35;;;;;;;21.88;100.00;100173.66;4979533;28;20050;-73
2023/08/27 04:22:56;;;;;;;0.40;0.40;;;;;;;22.63;100.00;100292.78;4986549;28;20052;-75
2023/08/27 04:25:21;;;;;;;1.10;1.00;;;;;;;22.73;100.00;100294.06;4981734;28;20050;-73
2023/08/27 04:27:47;;;;;;;1.38;1.17;;;;;;;22.68;100.00;100293.41;4982625;28;20042;-75
2023/08/27 04:30:12;;;;;;;2.83;1.13;;;;;;;22.66;100.00;100302.47;4977490;28;20046;-73
2023/08/27 04:32:38;;;;;;;2.25;2.05;;;;;;;22.82;100.00;100313.25;4981548;28;20097;-73
2023/08/27 04:35:04;;;;;;;3.75;0.90;;;;;;;22.77;100.00;100294.75;4984221;28;20030;-74
2023/08/27 04:37:30;;;;;;;1.73;1.63;;;;;;;22.30;100.00;100223.22;4982752;28;20045;-73
2023/08/27 04:39:55;;;;;;;0.63;0.60;;;;;;;22.21;100.00;100189.81;4983835;28;20034;-74
2023/08/27 04:42:21;;;;;;;1.70;1.48;;;;;;;23.02;100.00;100313.09;4986822;28;20046;-73
2023/08/27 04:44:46;;;;;;;0.30;0.30;;;;;;;23.00;100.00;100287.38;5021400;28;20040;-72
2023/08/27 04:47:12;;;;;;;0.60;0.60;;;;;;;22.34;100.00;100219.44;4981127;28;20035;-75
2023/08/27 04:49:37;;;;;;;0.80;0.75;;;;;;;22.87;100.00;100292.47;4990434;28;20427;-72
2023/08/27 04:52:03;;;;;;;2.22;1.33;;;;;;;22.50;100.00;100232.88;4990055;28;20101;-74
2023/08/27 04:54:29;;;;;;;2.03;1.30;;;;;;;22.66;100.00;100216.88;4990155;28;20721;-73
2023/08/27 04:56:55;;;;;;;1.35;1.08;;;;;;;23.37;100.00;100327.25;4975699;28;20046;-73
2023/08/27 04:59:20;;;;;;;0.20;0.20;;;;;;;23.22;100.00;100336.09;4970564;28;20394;-74
2023/08/27 05:01:46;;;;;;;5.03;2.50;;;;;;;23.33;100.00;100330.19;4985999;28;20030;-75
2023/08/27 05:04:11;;;;;;;1.08;0.98;;;;;;;22.56;100.00;100235.22;4985455;28;20046;-72
2023/08/27 05:06:37;;;;;;;0.30;0.30;;;;;;;23.29;100.00;100310.72;4986348;28;20034;-74
2023/08/27 05:09:02;;;;;;;1.40;1.08;;;;;;;23.44;100.00;100301.00;4989410;28;20038;-73
2023/08/27 05:11:28;;;;;;;1.77;1.38;;;;;;;23.57;100.00;100307.38;4989285;28;20152;-74
2023/08/27 05:13:53;;;;;;;0.70;0.68;;;;;;;23.83;100.00;100336.38;4983765;28;20645;-74
2023/08/27 05:16:18;;;;;;;0.90;0.82;;;;;;;23.31;100.00;100224.97;4986185;28;20046;-75
2023/08/27 05:18:44;;;;;;;0.63;0.63;;;;;;;23.99;100.00;100310.44;4989171;28;20038;-74
2023/08/27 05:21:10;;;;;;;4.90;1.15;;;;;;;24.00;100.00;100285.38;4987744;28;20058;-73
2023/08/27 05:23:35;;;;;;;0.88;0.82;;;;;;;24.24;100.00;100245.53;4984074;28;20447;-75
2023/08/27 05:26:01;;;;;;;1.55;1.40;;;;;;;25.10;100.00;100217.94;5016644;28;20098;-73
2023/08/27 05:28:26;;;;;;;0.77;0.77;;;;;;;25.20;100.00;100310.44;4989293;28;20052;-74
2023/08/27 05:30:53;;;;;;;1.23;1.13;;;;;;;25.97;100.00;100200.69;4984231;28;20042;-73
2023/08/27 05:33:18;;;;;;;0.73;0.45;;;;;;;27.24;100.00;100302.22;4987898;28;20411;-75
2023/08/27 05:35:43;;;;;;;1.23;1.13;;;;;;;26.80;100.00;100287.34;4989428;28;20042;-73
2023/08/27 05:38:10;;;;;;;0.52;0.50;;;;;;;28.24;100.00;100286.84;4988821;28;20756;-74
2023/08/27 05:40:35;;;;;;;0.82;0.77;;;;;;;28.05;100.00;100283.78;4985437;28;20109;-75
2023/08/27 05:43:01;;;;;;;0.88;0.38;;;;;;;28.74;100.00;100282.09;4982581;28;20054;-76
2023/08/27 05:45:26;;;;;;;0.40;0.40;;;;;;;27.72;100.00;100220.56;4987758;28;20035;-72
2023/08/27 05:47:51;;;;;;;0.75;0.75;;;;;;;27.44;100.00;100297.22;4988778;28;20398;-73
2023/08/27 05:50:17;;;;;;;0.30;0.30;;;;;;;27.78;100.00;100287.53;4979990;28;20042;-74
2023/08/27 05:52:42;;;;;;;0.45;0.40;;;;;;;29.16;100.00;100311.28;4992109;28;20031;-73
2023/08/27 05:55:08;;;;;;;1.98;1.45;;;;;;;29.47;100.00;100309.66;4992828;28;20383;-75
2023/08/27 05:57:34;;;;;;;1.10;0.47;;;;;;;28.42;100.00;100300.75;4972848;28;20066;-75
2023/08/27 05:59:59;;;;;;;0.95;0.73;;;;;;;29.54;100.00;100308.19;4976537;28;20046;-74
2023/08/27 06:02:26;;;;;;;3.85;2.17;;;;;;;28.84;100.00;100279.50;4989529;28;20030;-73
2023/08/27 06:04:51;;;;;;;1.13;1.02;;;;;;;29.15;100.00;100221.25;4991247;28;20034;-74
2023/08/27 06:07:17;;;;;;;0.70;0.50;;;;;;;29.03;100.00;100222.19;4989019;28;20093;-75
2023/08/27 06:09:42;;;;;;;0.45;0.40;;;;;;;29.25;100.00;100322.22;4985800;28;20093;-73
2023/08/27 06:12:08;;;;;;;1.13;1.05;;;;;;;29.36;100.00;100228.56;4989712;28;20137;-75
2023/08/27 06:14:34;;;;;;;2.47;1.25;;;;;;;30.57;100.00;100294.25;4993128;28;20038;-75
2023/08/27 06:16:59;;;;;;;1.08;1.05;;;;;;;30.14;100.00;100229.34;4989714;28;20038;-74
2023/08/27 06:19:25;;;;;;;1.02;0.55;;;;;;;29.22;100.00;100318.88;4988932;28;20058;-75
2023/08/27 06:21:50;;;;;;;0.13;0.13;;;;;;;28.83;100.00;100251.66;4988567;28;20124;-73
2023/08/27 06:24:16;;;;;;;0.85;0.63;;;;;;;29.45;100.00;100311.63;4985995;28;20097;-74
2023/08/27 06:26:41;;;;;;;2.00;1.10;;;;;;;28.92;100.00;100320.31;4982517;28;20046;-74
2023/08/27 06:29:06;;;;;;;0.43;0.43;;;;;;;29.34;100.00;100311.66;4988185;28;20033;-75
2023/08/27 06:31:33;;;;;;;2.58;2.05;;;;;;;29.12;100.00;100251.19;4985510;28;20711;-74
2023/08/27 06:33:59;;;;;;;1.63;1.52;;;;;;;29.41;100.00;100293.97;4988011;28;20480;-74
2023/08/27 06:36:24;;;;;;;1.92;1.33;;;;;;;28.06;100.00;100315.19;4983634;28;20047;-73
2023/08/27 06:38:50;;;;;;;0.45;0.45;;;;;;;28.60;100.00;100299.34;4988147;28;20061;-75
2023/08/27 06:41:15;;;;;;;1.08;1.00;;;;;;;28.80;100.00;100248.34;4985756;28;20034;-74
2023/08/27 06:43:41;;;;;;;0.65;0.60;;;;;;;28.94;100.00;100242.72;4984294;28;20038;-75
2023/08/27 06:46:08;;;;;;;0.75;0.75;;;;;;;29.18;100.00;100322.81;4984137;28;20089;-75
2023/08/27 06:48:33;;;;;;;0.63;0.63;;;;;;;27.13;100.00;100256.28;4988040;28;20042;-74
2023/08/27 06:50:59;;;;;;;0.68;0.68;;;;;;;27.32;100.00;100250.47;4988313;28;20065;-73
2023/08/27 06:53:24;;;;;;;1.50;1.40;;;;;;;28.05;100.00;100318.84;4985767;28;20057;-72
2023/08/27 06:55:50;;;;;;;0.70;0.70;;;;;;;28.28;100.00;100311.72;4989297;28;20042;-73
2023/08/27 06:58:15;;;;;;;2.17;1.95;;;;;;;27.98;100.00;100232.16;4990003;28;20081;-76
2023/08/27 07:00:41;;;;;;;0.65;0.65;;;;;;;27.96;100.00;100251.13;4989635;28;20080;-72
2023/08/27 07:03:06;;;;;;;2.67;1.77;;;;;;;28.09;100.00;100306.88;4983899;28;20053;-73
2023/08/27 07:05:33;;;;;;;1.45;1.35;;;;;;;28.23;100.00;100300.44;4987354;28;20069;-73
2023/08/27 07:07:59;;;;;;;0.95;0.88;;;;;;;27.58;100.00;100319.53;4986893;28;20022;-72
2023/08/27 07:10:24;;;;;;;1.23;1.13;;;;;;;27.58;100.00;100326.72;4983877;28;20043;-73
2023/08/27 07:12:50;;;;;;;0.68;0.50;;;;;;;27.48;100.00;100266.38;4981564;28;20058;-74
2023/08/27 07:15:15;;;;;;;1.83;1.70;;;;;;;27.61;100.00;100301.41;4987033;28;20609;-73
2023/08/27 07:17:41;;;;;;;1.55;1.45;;;;;;;27.84;100.00;100308.72;4986834;28;20723;-73
2023/08/27 07:20:07;;;;;;;1.33;0.70;;;;;;;28.04;100.00;100330.63;4984345;28;20651;-73
2023/08/27 07:22:33;;;;;;;1.27;1.17;;;;;;;27.50;96.21;100269.84;4986219;28;20148;-73
2023/08/27 07:24:59;;;;;;;1.10;1.05;;;;;;;28.13;96.52;100335.34;4980653;28;20073;-73
2023/08/27 07:27:25;;;;;;;0.75;0.70;;;;;;;27.46;91.57;100236.84;4984955;28;20061;-73
2023/08/27 07:29:50;;;;;;;0.30;0.30;;;;;;;27.06;93.31;100265.78;4978330;28;20047;-73
2023/08/27 07:32:16;;;;;;;0.40;0.40;;;;;;;27.10;91.03;100268.16;4985572;28;20034;-73
2023/08/27 07:34:42;;;;;;;1.48;1.38;;;;;;;27.67;88.86;100322.50;4987348;28;20069;-74
2023/08/27 07:37:07;;;;;;;0.40;0.40;;;;;;;27.62;84.43;100316.59;4985460;28;20070;-73
2023/08/27 07:39:33;;;;;;;0.80;0.70;;;;;;;28.02;87.29;100327.19;4981685;28;20100;-73
2023/08/27 07:41:59;;;;;;;2.53;1.95;;;;;;;28.04;88.02;100312.59;4986920;28;20053;-74
2023/08/27 07:44:25;;;;;;;0.95;0.95;;;;;;;27.73;87.80;100233.94;4986144;28;20042;-73
2023/08/27 07:46:51;;;;;;;2.40;2.20;;;;;;;28.13;88.56;100309.22;4980750;28;20042;-73
2023/08/27 07:49:16;;;;;;;4.20;0.80;;;;;;;28.24;87.17;100318.31;4983679;28;20716;-72
2023/08/27 07:51:42;;;;;;;1.20;1.10;;;;;;;28.24;85.57;100299.44;4986957;28;20081;-74
2023/08/27 07:54:07;;;;;;;0.82;0.60;;;;;;;28.11;84.79;100280.63;4986040;28;20049;-74
2023/08/27 07:56:33;;;;;;;0.88;0.80;;;;;;;28.11;85.70;100319.25;4979380;28;20053;-74
2023/08/27 07:58:58;;;;;;;1.27;1.17;;;;;;;27.99;87.04;100317.47;4989991;28;20033;-73
2023/08/27 08:01:23;;;;;;;0.82;0.57;;;;;;;27.81;86.45;100224.41;4988288;28;20156;-73
2023/08/27 08:03:49;;;;;;;1.50;1.40;;;;;;;28.54;81.78;100315.16;4985042;28;20430;-73
2023/08/27 08:06:14;;;;;;;1.02;0.88;;;;;;;28.22;81.63;100225.88;4978700;28;20047;-73
2023/08/27 08:08:40;;;;;;;2.28;1.10;;;;;;;27.91;73.91;100234.44;4983705;28;20046;-72
2023/08/27 08:11:06;;;;;;;0.93;0.65;;;;;;;28.36;71.10;100314.72;4986454;28;20522;-74
2023/08/27 08:13:35;;;;;;;0.95;0.75;;;;;;;27.15;70.56;100063.94;4986766;28;20104;-74
2023/08/27 08:16:02;;;;;;;2.30;0.75;;;;;;;28.66;68.44;100302.56;4986344;28;20042;-73
2023/08/27 08:18:27;;;;;;;1.80;1.65;;;;;;;28.53;69.10;100268.41;4981064;28;20129;-75
2023/08/27 08:20:54;;;;;;;0.20;0.20;;;;;;;28.51;66.41;100264.13;4986715;28;20614;-72
2023/08/27 08:23:19;;;;;;;1.02;0.73;;;;;;;28.87;65.53;100291.91;4981767;28;20038;-72
2023/08/27 08:25:49;;;;;;;0.40;0.40;;;;;;;29.19;62.95;100286.69;4982514;28;20027;-73
2023/08/27 08:28:15;;;;;;;0.85;0.60;;;;;;;29.09;63.28;100243.34;4970455;28;20050;-73
2023/08/27 08:30:45;;;;;;;1.20;1.10;;;;;;;28.95;57.96;100211.16;5017616;28;20614;-73
2023/08/27 08:33:11;;;;;;;0.52;0.52;;;;;;;28.95;55.28;100211.16;4983923;28;20059;-76
2023/08/27 08:35:37;;;;;;;0.50;0.50;;;;;;;29.43;55.16;100283.84;4985624;28;20043;-73
2023/08/27 08:38:03;;;;;;;0.40;0.40;;;;;;;29.56;55.03;100295.41;4985484;28;20026;-72
2023/08/27 08:40:30;;;;;;;8.20;1.65;;;;;;;29.11;53.89;100265.69;4981840;28;20174;-73
2023/08/27 08:42:59;;;;;;;0.50;0.50;;;;;;;29.53;52.67;100301.06;4981610;28;20038;-74
2023/08/27 08:45:46;;;;;;;7.82;1.60;;;;;;;29.60;48.56;100291.47;4985178;28;20057;-73
2023/08/27 08:48:11;;;;;;;1.50;0.95;;;;;;;29.59;49.21;100257.28;4984829;28;20046;-73
2023/08/27 08:50:40;;;;;;;0.45;0.28;;;;;;;29.76;48.88;100283.00;4976429;28;20053;-72
2023/08/27 08:53:14;;;;;;;0.45;0.45;;;;;;;29.53;48.34;100244.28;4985679;28;20027;-75
2023/08/27 08:55:46;;;;;;;1.10;0.98;;;;;;;29.58;49.84;100206.03;4979524;28;20034;-73
2023/08/27 08:58:13;;;;;;;1.20;0.60;;;;;;;29.73;50.46;100218.31;4981167;28;20050;-72
2023/08/27 09:00:39;;;;;;;0.68;0.68;;;;;;;29.98;50.30;100260.41;4982328;28;20574;-72
2023/08/27 09:03:05;;;;;;;0.73;0.73;;;;;;;30.14;49.80;100265.38;4984284;28;20430;-73
2023/08/27 09:05:32;;;;;;;1.55;0.40;;;;;;;29.65;49.79;100172.94;4985261;28;20486;-74
2023/08/27 09:07:58;;;;;;;0.40;0.40;;;;;;;30.22;48.20;100203.31;4979061;28;20035;-73
2023/08/27 09:10:27;;;;;;;2.15;1.42;;;;;;;30.75;48.65;100247.59;4983960;28;20434;-73
2023/08/27 09:12:56;;;;;;;0.30;0.30;;;;;;;30.11;47.81;100170.94;4985734;28;20054;-73
2023/08/27 09:15:22;;;;;;;1.13;1.00;;;;;;;30.64;49.30;100237.69;4980388;28;20042;-75
2023/08/27 09:17:48;;;;;;;0.40;0.28;;;;;;;30.06;49.45;100171.31;4985448;28;20042;-73
2023/08/27 09:20:13;;;;;;;1.27;1.17;;;;;;;31.10;48.97;100245.38;4985626;28;20481;-73
2023/08/27 09:22:40;;;;;;;2.13;1.52;;;;;;;31.17;49.10;100251.13;4985792;28;20034;-73
2023/08/27 09:25:09;;;;;;;0.88;0.77;;;;;;;30.97;49.61;100233.91;4983584;28;20046;-75
2023/08/27 09:27:34;;;;;;;0.57;0.47;;;;;;;31.12;50.53;100243.38;4982745;28;20096;-73
2023/08/27 09:30:01;;;;;;;0.40;0.40;;;;;;;30.58;48.89;100148.84;4984299;28;20042;-73
2023/08/27 09:32:27;;;;;;;0.57;0.35;;;;;;;30.73;49.49;100163.75;4987409;28;20056;-73
2023/08/27 09:35:01;;;;;;;0.40;0.30;;;;;;;31.39;49.01;100217.47;4983892;28;20035;-75
2023/08/27 09:37:28;;;;;;;1.67;1.40;;;;;;;31.55;48.85;100208.84;4987156;28;20395;-73
2023/08/27 09:39:54;;;;;;;1.83;1.58;;;;;;;31.70;48.63;100212.88;4988604;28;20042;-73
2023/08/27 09:42:21;;;;;;;1.20;1.02;;;;;;;31.72;48.38;100174.72;4984171;28;20514;-72
2023/08/27 09:44:54;;;;;;;0.73;0.73;;;;;;;31.61;47.36;100126.03;4978282;28;20517;-74
2023/08/27 09:47:35;;;;;;;2.05;1.65;;;;;;;32.36;48.32;100173.28;4988270;28;20038;-72
2023/08/27 09:50:06;;;;;;;0.43;0.40;;;;;;;32.34;47.60;100124.53;5015454;28;20034;-72
2023/08/27 09:52:32;;;;;;;1.02;0.95;;;;;;;32.42;45.64;100112.91;4985053;28;20470;-73
2023/08/27 09:54:58;;;;;;;1.63;1.40;;;;;;;32.54;44.05;100160.66;4983339;28;20045;-71
2023/08/27 09:57:24;;;;;;;0.82;0.63;;;;;;;32.67;45.03;100141.31;4982678;28;20053;-72
2023/08/27 09:59:50;;;;;;;1.33;1.23;;;;;;;33.36;44.47;100175.31;4988411;28;20475;-72
2023/08/27 10:02:17;;;;;;;1.40;1.30;;;;;;;33.39;42.33;100144.25;4982292;28;20034;-73
2023/08/27 10:04:51;;;;;;;1.10;0.95;;;;;;;33.69;42.45;100163.94;4988661;28;20494;-73
2023/08/27 10:07:16;;;;;;;1.20;1.10;;;;;;;34.04;42.58;100176.66;4987660;28;20072;-71
2023/08/27 10:09:42;;;;;;;1.17;1.02;;;;;;;33.84;42.13;100167.81;4988026;28;20479;-72
2023/08/27 10:12:11;;;;;;;1.13;1.02;;;;;;;34.08;41.93;100114.56;4976848;28;20054;-74
2023/08/27 10:14:41;;;;;;;1.77;1.00;;;;;;;33.84;41.63;100155.06;4990994;28;20407;-74
2023/08/27 10:17:06;;;;;;;2.85;1.15;;;;;;;34.25;40.67;100155.44;4986481;28;20030;-75
2023/08/27 10:19:35;;;;;;;0.30;0.30;;;;;;;34.18;40.45;100165.22;4985785;28;20388;-73
2023/08/27 10:22:01;;;;;;;1.13;0.82;;;;;;;34.53;41.61;100163.41;4987976;28;20050;-72
2023/08/27 10:24:29;;;;;;;0.85;0.75;;;;;;;35.01;39.82;100174.78;4982974;28;20122;-74
2023/08/27 10:26:57;;;;;;;1.40;1.30;;;;;;;35.15;39.69;100162.41;4982736;28;20035;-73
2023/08/27 10:29:24;;;;;;;0.35;0.35;;;;;;;34.68;38.58;100139.19;4969198;28;20773;-74
2023/08/27 10:31:52;;;;;;;1.20;0.65;;;;;;;34.81;38.35;100063.22;5014539;28;20034;-73
2023/08/27 10:34:17;;;;;;;1.50;1.40;;;;;;;35.26;39.63;100081.09;4987494;28;20048;-74
2023/08/27 10:36:45;;;;;;;0.75;0.60;;;;;;;36.01;38.01;100132.00;4987358;28;20038;-74
2023/08/27 10:39:11;;;;;;;1.65;1.55;;;;;;;35.75;37.37;100151.25;4979639;28;20581;-73
2023/08/27 10:41:36;;;;;;;0.93;0.70;;;;;;;36.28;37.79;100144.44;4986737;28;20050;-75
2023/08/27 10:44:03;;;;;;;0.77;0.77;;;;;;;36.41;37.17;100134.84;4988749;28;20445;-72
2023/08/27 10:46:28;;;;;;;1.15;1.05;;;;;;;35.93;37.48;100138.31;4983412;28;20046;-73
2023/08/27 10:48:54;;;;;;;0.40;0.40;;;;;;;36.02;36.79;100136.44;4982085;28;20604;-73
2023/08/27 10:51:27;;;;;;;2.05;1.85;;;;;;;35.47;36.89;100041.53;4987232;28;20057;-74
2023/08/27 10:53:58;;;;;;;1.05;0.60;;;;;;;36.17;35.85;100114.75;4985370;28;20042;-73
2023/08/27 10:56:38;;;;;;;1.83;0.95;;;;;;;36.69;35.33;100138.91;4978746;28;20054;-73
2023/08/27 10:59:11;;;;;;;2.58;2.38;;;;;;;36.48;35.26;100133.09;4987711;28;20046;-73
2023/08/27 11:01:59;;;;;;;1.00;0.88;;;;;;;36.42;35.24;100134.69;4993912;28;20076;-76
2023/08/27 11:04:42;;;;;;;0.63;0.63;;;;;;;35.64;35.37;100042.44;4984196;28;20077;-74
2023/08/27 11:07:12;;;;;;;1.38;0.75;;;;;;;35.19;35.87;100125.56;4983506;28;20080;-75
2023/08/27 11:09:45;;;;;;;0.45;0.45;;;;;;;35.78;35.14;100092.72;4978918;28;20490;-72
2023/08/27 11:12:21;;;;;;;0.40;0.40;;;;;;;36.24;35.05;100074.75;4987150;28;20038;-74
2023/08/27 11:14:46;;;;;;;3.85;0.80;;;;;;;36.30;35.56;100038.53;4985652;28;20066;-74
2023/08/27 11:17:28;;;;;;;0.60;0.60;;;;;;;35.98;34.92;100104.16;4983930;28;20109;-74